Time;durP1;ratioP1;P1;durP2;ratioP2;P2;SDS_P1;SDS_P2;PMS_P1;PMS_P2;Temp;Humidity;BMP_temperature;BMP_pressure;BME280_temperature;BME280_humidity;BME280_pressure;Samples;Min_cycle;Max_cycle;Signal;HPM_P1;HPM_P2
2022/10/27 00:02:14;;;;;;;12.80;5.60;;;;;;;-145.18;100.00;46654.53;5069715;28;20107;-69
2022/10/27 00:04:39;;;;;;;10.00;4.80;;;;;;;-145.18;100.00;46656.50;5069962;28;20269;-69
2022/10/27 00:07:05;;;;;;;10.27;6.03;;;;;;;-145.18;100.00;46656.50;5053111;28;20072;-69
2022/10/27 00:09:30;;;;;;;14.43;5.80;;;;;;;-145.18;100.00;46654.53;5053123;28;20031;-69
2022/10/27 00:11:56;;;;;;;14.40;5.03;;;;;;;-145.18;100.00;46664.31;5052768;28;20102;-69
2022/10/27 00:14:22;;;;;;;11.90;5.13;;;;;;;-145.18;100.00;46658.44;5053247;28;20029;-69
2022/10/27 00:16:53;;;;;;;14.83;5.90;;;;;;;-145.18;100.00;46654.53;5052745;28;20032;-69
2022/10/27 00:19:19;;;;;;;9.60;5.60;;;;;;;-145.18;100.00;46658.44;5052875;28;20040;-69
2022/10/27 00:21:45;;;;;;;10.07;4.80;;;;;;;-145.18;100.00;46658.44;5052576;28;20826;-69
2022/10/27 00:24:10;;;;;;;12.70;5.27;;;;;;;-145.18;100.00;46656.50;5053047;28;20033;-69
2022/10/27 00:26:35;;;;;;;11.37;5.00;;;;;;;-145.18;100.00;46660.41;5052538;28;20049;-70
2022/10/27 00:29:01;;;;;;;8.47;4.73;;;;;;;-145.18;100.00;46656.50;5051510;28;20045;-70
2022/10/27 00:31:26;;;;;;;9.47;4.87;;;;;;;-145.18;100.00;46658.44;5053079;28;20112;-70
2022/10/27 00:33:51;;;;;;;10.93;5.77;;;;;;;-145.18;100.00;46662.34;5052803;28;20633;-70
2022/10/27 00:36:20;;;;;;;13.17;5.20;;;;;;;-145.18;100.00;46658.44;5052440;28;20394;-69
2022/10/27 00:38:46;;;;;;;15.43;5.40;;;;;;;-145.18;100.00;46656.50;5052522;28;20139;-70
2022/10/27 00:41:26;;;;;;;11.47;5.00;;;;;;;-145.18;100.00;46660.41;5052547;28;20120;-69
2022/10/27 00:43:52;;;;;;;9.70;5.37;;;;;;;-145.18;100.00;46660.41;5052287;28;20025;-70
2022/10/27 00:46:33;;;;;;;12.50;5.63;;;;;;;-145.18;100.00;46660.41;5052388;28;20371;-70
2022/10/27 00:49:10;;;;;;;8.20;4.63;;;;;;;-145.18;100.00;46664.31;5052466;28;20025;-70
2022/10/27 00:51:44;;;;;;;8.53;4.60;;;;;;;-145.18;100.00;46658.44;5052276;28;20021;-70
2022/10/27 00:54:11;;;;;;;11.37;5.50;;;;;;;-145.18;100.00;46658.44;5051142;28;20363;-70
2022/10/27 00:56:37;;;;;;;12.23;5.00;;;;;;;-145.18;100.00;46658.44;5052490;28;20033;-69
2022/10/27 00:59:04;;;;;;;11.83;4.70;;;;;;;-145.18;100.00;46658.44;5052055;28;20111;-70
2022/10/27 01:01:30;;;;;;;11.77;5.53;;;;;;;-145.18;100.00;46658.44;5052055;28;20029;-69
2022/10/27 01:03:56;;;;;;;7.27;4.23;;;;;;;-145.18;100.00;46658.44;5051833;28;20048;-70
2022/10/27 01:06:22;;;;;;;9.87;4.67;;;;;;;-145.18;100.00;46658.44;5052179;28;20474;-70
2022/10/27 01:08:49;;;;;;;15.20;4.43;;;;;;;-145.18;100.00;46658.44;5051885;28;20043;-70
2022/10/27 01:11:14;;;;;;;14.80;5.00;;;;;;;-145.18;100.00;46656.50;5052130;28;20102;-70
2022/10/27 01:13:39;;;;;;;8.03;4.60;;;;;;;-145.18;100.00;46660.41;5052150;28;20607;-70
2022/10/27 01:16:18;;;;;;;12.87;5.50;;;;;;;-145.18;100.00;46662.34;5051331;28;20511;-70
2022/10/27 01:18:57;;;;;;;14.43;5.30;;;;;;;-145.18;100.00;46662.34;5052172;28;20049;-70
2022/10/27 01:21:57;;;;;;;9.90;4.90;;;;;;;-145.18;100.00;46668.22;5052036;28;20513;-70
2022/10/27 01:24:25;;;;;;;13.23;5.27;;;;;;;-145.18;100.00;46660.41;5051926;28;20057;-70
2022/10/27 01:26:52;;;;;;;12.50;4.80;;;;;;;-145.18;100.00;46662.34;5051413;28;20072;-70
2022/10/27 01:29:46;;;;;;;12.90;5.07;;;;;;;-145.18;100.00;46664.31;5051767;28;20036;-69
2022/10/27 01:32:19;;;;;;;10.07;4.80;;;;;;;-145.18;100.00;46658.44;5051705;28;20056;-69
2022/10/27 01:35:24;;;;;;;10.37;5.07;;;;;;;-145.18;100.00;46656.50;5051459;28;20032;-70
2022/10/27 01:38:16;;;;;;;7.77;4.40;;;;;;;-145.18;100.00;46660.41;5051260;28;20115;-70
2022/10/27 01:41:08;;;;;;;11.37;4.73;;;;;;;-145.18;100.00;46656.50;5051699;28;20064;-70
2022/10/27 01:43:34;;;;;;;11.23;4.80;;;;;;;-145.18;100.00;46662.34;5051216;28;20644;-70
2022/10/27 01:46:03;;;;;;;9.73;4.43;;;;;;;-145.18;100.00;46658.44;5051320;28;20469;-70
2022/10/27 01:48:32;;;;;;;14.30;4.43;;;;;;;-145.18;100.00;46660.41;5051087;28;20044;-70
2022/10/27 01:50:57;;;;;;;10.27;4.17;;;;;;;-145.18;100.00;46660.41;5051315;28;20025;-70
2022/10/27 01:53:23;;;;;;;9.77;4.30;;;;;;;-145.18;100.00;46658.44;5051144;28;20041;-70
2022/10/27 01:56:03;;;;;;;14.63;4.80;;;;;;;-145.18;100.00;46656.50;5051023;28;20033;-70
2022/10/27 01:58:34;;;;;;;20.00;4.67;;;;;;;-145.18;100.00;46662.34;5066544;28;20025;-70
2022/10/27 02:01:18;;;;;;;8.67;4.83;;;;;;;-145.18;100.00;46654.53;5071191;28;20544;-70
2022/10/27 02:03:57;;;;;;;8.57;4.20;;;;;;;-145.18;100.00;46654.53;5070745;28;20079;-70
2022/10/27 02:06:31;;;;;;;13.17;4.83;;;;;;;-145.18;100.00;46654.53;5070702;28;20401;-69
2022/10/27 02:09:12;;;;;;;9.80;4.53;;;;;;;-145.18;100.00;46660.41;5068841;28;20034;-70
2022/10/27 02:11:42;;;;;;;12.17;4.50;;;;;;;-145.18;100.00;46656.50;5070393;28;20043;-70
2022/10/27 02:14:09;;;;;;;9.13;4.47;;;;;;;-145.18;100.00;46652.59;5070831;28;20032;-70
2022/10/27 02:16:41;;;;;;;12.30;4.67;;;;;;;-145.18;100.00;46660.41;5070507;28;20132;-70
2022/10/27 02:19:16;;;;;;;14.50;4.00;;;;;;;-145.18;100.00;46656.50;5070453;28;20042;-70
2022/10/27 02:21:44;;;;;;;12.88;4.53;;;;;;;-145.18;100.00;46658.44;5070762;28;20067;-70
2022/10/27 02:24:09;;;;;;;9.43;4.80;;;;;;;-145.18;100.00;46656.50;5070292;28;20863;-70
2022/10/27 02:26:42;;;;;;;12.30;3.90;;;;;;;-145.18;100.00;46656.50;5069922;28;20041;-70
2022/10/27 02:29:12;;;;;;;13.03;4.60;;;;;;;-145.18;100.00;46666.25;5070497;28;20447;-70
2022/10/27 02:31:44;;;;;;;11.97;4.47;;;;;;;-145.18;100.00;46656.50;5070376;28;20107;-70
2022/10/27 02:34:10;;;;;;;10.87;4.80;;;;;;;-145.18;100.00;46658.44;5070332;28;20025;-70
2022/10/27 02:36:35;;;;;;;10.07;4.10;;;;;;;-145.18;100.00;46658.44;5070157;28;20440;-70
2022/10/27 02:39:01;;;;;;;11.27;4.17;;;;;;;-145.18;100.00;46654.53;5070275;28;20045;-70
2022/10/27 02:41:26;;;;;;;8.37;3.90;;;;;;;-145.18;100.00;46654.53;5070412;28;20039;-70
2022/10/27 02:43:52;;;;;;;8.77;4.07;;;;;;;-145.18;100.00;46654.53;5068913;28;20071;-70
2022/10/27 02:46:17;;;;;;;8.93;3.97;;;;;;;-145.18;100.00;46652.59;5070287;28;20040;-70
2022/10/27 02:48:43;;;;;;;13.10;4.30;;;;;;;-145.18;100.00;46656.50;5070174;28;20155;-70
2022/10/27 02:51:08;;;;;;;8.77;4.00;;;;;;;-145.18;100.00;46656.50;5070008;28;20043;-70
2022/10/27 02:53:33;;;;;;;10.63;4.03;;;;;;;-145.18;100.00;46654.53;5069837;28;20028;-70
2022/10/27 02:55:59;;;;;;;11.07;3.57;;;;;;;-145.18;100.00;46652.59;5070078;28;20041;-69
2022/10/27 02:58:24;;;;;;;15.63;5.00;;;;;;;-145.18;100.00;46652.59;5069949;28;20067;-70
2022/10/27 03:03:25;;;;;;;11.75;4.30;;;;;;;-145.18;100.00;46652.59;5062163;22;20290;-70
2022/10/27 03:05:50;;;;;;;9.83;4.67;;;;;;;-145.18;100.00;46650.63;5069775;28;20552;-70
2022/10/27 03:08:16;;;;;;;10.13;4.80;;;;;;;-145.18;100.00;46654.53;5069855;28;20123;-70
2022/10/27 03:10:42;;;;;;;10.37;5.00;;;;;;;-145.18;100.00;46648.69;5069820;28;20518;-70
2022/10/27 03:13:08;;;;;;;12.13;5.73;;;;;;;-145.18;100.00;46650.63;5069845;28;20041;-70
2022/10/27 03:15:33;;;;;;;15.40;5.60;;;;;;;-145.18;100.00;46644.78;5069804;28;20507;-70
2022/10/27 03:17:58;;;;;;;11.33;5.73;;;;;;;-145.18;100.00;46646.72;5068750;28;20508;-70
2022/10/27 03:20:24;;;;;;;14.73;6.50;;;;;;;-145.18;100.00;46648.69;5070211;28;20040;-70
2022/10/27 03:22:49;;;;;;;15.00;6.20;;;;;;;-145.18;100.00;46650.63;5069855;28;20044;-70
2022/10/27 03:25:15;;;;;;;15.90;6.63;;;;;;;-145.18;100.00;46650.63;5069932;28;20047;-70
2022/10/27 03:27:42;;;;;;;11.90;6.30;;;;;;;-145.18;100.00;46644.78;5073383;28;20037;-70
2022/10/27 03:30:15;;;;;;;13.23;6.23;;;;;;;-145.18;100.00;46648.69;5077843;28;20115;-70
2022/10/27 03:32:48;;;;;;;17.00;7.20;;;;;;;-145.18;100.00;46648.69;5083522;28;20033;-70
2022/10/27 03:35:15;;;;;;;15.13;6.50;;;;;;;-145.18;100.00;46652.59;5074203;28;20119;-70
2022/10/27 03:37:40;;;;;;;18.47;7.10;;;;;;;-145.18;100.00;46648.69;5069373;28;20546;-70
2022/10/27 03:40:07;;;;;;;14.10;7.13;;;;;;;-145.18;100.00;46650.63;5073208;28;20029;-70
2022/10/27 03:42:32;;;;;;;15.13;6.23;;;;;;;-145.18;100.00;46654.53;5073579;28;20044;-70
2022/10/27 03:44:57;;;;;;;16.90;5.87;;;;;;;-145.18;100.00;46650.63;5074063;28;20129;-70
2022/10/27 03:47:23;;;;;;;13.17;6.30;;;;;;;-145.18;100.00;46646.72;5073759;28;20510;-70
2022/10/27 03:49:48;;;;;;;22.47;6.63;;;;;;;-145.18;100.00;46652.59;5073718;28;20197;-70
2022/10/27 03:52:14;;;;;;;15.70;5.83;;;;;;;-145.18;100.00;46652.59;5073417;28;20473;-70
2022/10/27 03:54:39;;;;;;;16.97;5.90;;;;;;;-145.18;100.00;46650.63;5073645;28;20037;-70
2022/10/27 03:57:04;;;;;;;10.30;5.40;;;;;;;-145.18;100.00;46652.59;5073482;28;20063;-70
2022/10/27 03:59:30;;;;;;;19.50;6.40;;;;;;;-145.18;100.00;46652.59;5073665;28;20038;-70
2022/10/27 04:01:55;;;;;;;15.13;5.50;;;;;;;-145.18;100.00;46646.72;5072403;28;20115;-70
2022/10/27 04:04:21;;;;;;;14.87;5.40;;;;;;;-145.18;100.00;46652.59;5073766;28;20136;-70
2022/10/27 04:06:47;;;;;;;11.90;4.90;;;;;;;-145.18;100.00;46652.59;5073226;28;20139;-70
2022/10/27 04:09:12;;;;;;;11.23;5.67;;;;;;;-145.18;100.00;46646.72;5073712;28;20111;-70
2022/10/27 04:11:37;;;;;;;11.27;5.20;;;;;;;-145.18;100.00;46648.69;5073255;28;20098;-70
2022/10/27 04:14:03;;;;;;;15.87;6.20;;;;;;;-145.18;100.00;46648.69;5073327;28;20504;-70
2022/10/27 04:16:28;;;;;;;11.13;5.40;;;;;;;-145.18;100.00;46652.59;5073290;28;20549;-70
2022/10/27 04:18:53;;;;;;;9.40;5.53;;;;;;;-145.18;100.00;46648.69;5073139;28;20036;-71
2022/10/27 04:21:19;;;;;;;10.40;5.13;;;;;;;-145.18;100.00;46652.59;5071876;28;20036;-70
2022/10/27 04:23:45;;;;;;;9.63;4.87;;;;;;;-145.18;100.00;46652.59;5072850;28;20044;-70
2022/10/27 04:26:10;;;;;;;11.57;5.60;;;;;;;-145.18;100.00;46652.59;5073164;28;20469;-70
2022/10/27 04:28:36;;;;;;;10.90;5.60;;;;;;;-145.18;100.00;46648.69;5072563;28;20064;-70
2022/10/27 04:31:01;;;;;;;10.07;4.60;;;;;;;-145.18;100.00;46650.63;5073429;28;20028;-70
2022/10/27 04:33:26;;;;;;;13.80;5.23;;;;;;;-145.18;100.00;46650.63;5072631;28;20040;-70
2022/10/27 04:35:52;;;;;;;9.73;4.53;;;;;;;-145.18;100.00;46656.50;5062689;28;20033;-70
2022/10/27 04:38:17;;;;;;;13.63;5.03;;;;;;;-145.18;100.00;46652.59;5067085;28;20135;-70
2022/10/27 04:40:42;;;;;;;11.20;4.90;;;;;;;-145.18;100.00;46654.53;5058794;28;20076;-70
2022/10/27 04:43:09;;;;;;;13.27;5.13;;;;;;;-145.18;100.00;46654.53;5052760;28;20087;-70
2022/10/27 04:45:34;;;;;;;14.30;4.77;;;;;;;-145.18;100.00;46650.63;5052527;28;20090;-70
2022/10/27 04:48:00;;;;;;;13.17;5.00;;;;;;;-145.18;100.00;46652.59;5060427;28;20436;-70
2022/10/27 04:50:25;;;;;;;18.70;5.50;;;;;;;-145.18;100.00;46648.69;5060240;28;20493;-70
2022/10/27 04:53:01;;;;;;;9.00;4.87;;;;;;;-145.18;100.00;46654.53;5062952;28;20032;-70
2022/10/27 04:55:29;;;;;;;8.33;4.70;;;;;;;-145.18;100.00;46650.63;5063154;28;20100;-70
2022/10/27 04:57:54;;;;;;;12.93;4.47;;;;;;;-145.18;100.00;46654.53;5061183;28;20040;-70
2022/10/27 05:00:21;;;;;;;15.43;5.23;;;;;;;-145.18;100.00;46654.53;5071186;28;20536;-70
2022/10/27 05:02:52;;;;;;;16.13;4.67;;;;;;;-145.18;100.00;46656.50;5071902;28;20803;-70
2022/10/27 05:05:18;;;;;;;15.90;4.30;;;;;;;-145.18;100.00;46656.50;5072591;28;20040;-70
2022/10/27 05:07:50;;;;;;;16.17;5.03;;;;;;;-145.18;100.00;46650.63;5072171;28;20563;-70
2022/10/27 05:10:15;;;;;;;10.20;4.60;;;;;;;-145.18;100.00;46652.59;5072188;28;20025;-70
2022/10/27 05:12:41;;;;;;;13.43;5.27;;;;;;;-145.18;100.00;46654.53;5068506;28;20043;-70
2022/10/27 05:15:07;;;;;;;9.13;3.77;;;;;;;-145.18;100.00;46648.69;5071515;28;20032;-69
2022/10/27 05:17:34;;;;;;;9.10;4.17;;;;;;;-145.18;100.00;46656.50;5071787;28;20429;-69
2022/10/27 05:20:00;;;;;;;11.53;3.87;;;;;;;-145.18;100.00;46658.44;5072035;28;20028;-69
2022/10/27 05:22:25;;;;;;;9.93;4.17;;;;;;;-145.18;100.00;46654.53;5071693;28;20033;-69
2022/10/27 05:24:50;;;;;;;9.90;4.47;;;;;;;-145.18;100.00;46652.59;5071357;28;20032;-69
2022/10/27 05:27:16;;;;;;;14.40;3.63;;;;;;;-145.18;100.00;46648.69;5071612;28;20037;-69
2022/10/27 05:29:41;;;;;;;10.67;3.50;;;;;;;-145.18;100.00;46654.53;5071822;28;20029;-69
2022/10/27 05:32:06;;;;;;;13.07;3.30;;;;;;;-145.18;100.00;46656.50;5071550;28;20086;-69
2022/10/27 05:34:32;;;;;;;7.70;3.57;;;;;;;-145.18;100.00;46652.59;5071315;28;20051;-69
2022/10/27 05:36:57;;;;;;;8.63;3.87;;;;;;;-145.18;100.00;46656.50;5071577;28;20040;-69
2022/10/27 05:39:22;;;;;;;7.80;3.33;;;;;;;-145.18;100.00;46658.44;5071693;28;20778;-69
2022/10/27 05:41:48;;;;;;;6.80;3.87;;;;;;;-145.18;100.00;46656.50;5071341;28;20111;-69
2022/10/27 05:44:13;;;;;;;9.93;4.13;;;;;;;-145.18;100.00;46658.44;5070931;28;20032;-69
2022/10/27 05:46:39;;;;;;;8.83;3.10;;;;;;;-145.18;100.00;46656.50;5071413;28;20071;-69
2022/10/27 05:49:04;;;;;;;6.00;2.57;;;;;;;-145.18;100.00;46656.50;5071329;28;20051;-69
2022/10/27 05:51:29;;;;;;;8.97;3.00;;;;;;;-145.18;100.00;46656.50;5071203;28;20120;-69
2022/10/27 05:53:55;;;;;;;6.43;2.90;;;;;;;-145.18;100.00;46658.44;5070791;28;20067;-69
2022/10/27 05:56:20;;;;;;;7.37;2.70;;;;;;;-145.18;100.00;46652.59;5066781;28;20072;-69
2022/10/27 05:58:46;;;;;;;7.77;2.50;;;;;;;-145.18;100.00;46654.53;5068848;28;20488;-69
2022/10/27 06:01:11;;;;;;;14.27;2.60;;;;;;;-145.18;100.00;46662.34;5066976;28;20028;-69
2022/10/27 06:03:36;;;;;;;11.63;2.93;;;;;;;-145.18;100.00;46662.34;5067179;28;20052;-69
2022/10/27 06:06:03;;;;;;;6.97;2.63;;;;;;;-145.18;100.00;46654.53;5064335;28;20051;-69
2022/10/27 06:08:29;;;;;;;5.80;2.50;;;;;;;-145.18;100.00;46656.50;5059470;28;20033;-69
2022/10/27 06:10:55;;;;;;;8.37;2.87;;;;;;;-145.18;100.00;46664.31;5067121;28;20040;-69
2022/10/27 06:13:21;;;;;;;7.53;2.77;;;;;;;-145.18;100.00;46664.31;5069850;28;20489;-69
2022/10/27 06:15:46;;;;;;;5.27;1.97;;;;;;;-145.18;100.00;46656.50;5069970;28;20039;-69
2022/10/27 06:18:12;;;;;;;3.40;2.03;;;;;;;-145.18;100.00;46664.31;5070766;28;20082;-69
2022/10/27 06:20:37;;;;;;;4.20;2.00;;;;;;;-145.18;100.00;46660.41;5070693;28;20108;-69
2022/10/27 06:23:03;;;;;;;12.03;2.87;;;;;;;-145.18;100.00;46662.34;5070706;28;20431;-69
2022/10/27 06:25:28;;;;;;;3.70;1.77;;;;;;;-145.18;100.00;46662.34;5070726;28;20563;-69
2022/10/27 06:27:54;;;;;;;4.83;1.90;;;;;;;-145.18;100.00;46664.31;5070148;28;20090;-69
2022/10/27 06:30:19;;;;;;;5.47;2.00;;;;;;;-145.18;100.00;46672.13;5070919;28;20481;-69
2022/10/27 06:32:45;;;;;;;13.17;2.30;;;;;;;-145.18;100.00;46668.22;5070113;28;20115;-69
2022/10/27 06:35:10;;;;;;;7.73;3.00;;;;;;;-145.18;100.00;46664.31;5070660;28;20227;-69
2022/10/27 06:37:41;;;;;;;7.17;2.30;;;;;;;-145.18;100.00;46664.31;5070044;28;20044;-69
2022/10/27 06:40:08;;;;;;;6.57;1.57;;;;;;;-145.18;100.00;46672.13;5070594;28;20432;-69
2022/10/27 06:42:36;;;;;;;7.17;1.80;;;;;;;-145.18;100.00;46674.06;5069942;28;20503;-69
2022/10/27 06:45:03;;;;;;;8.63;1.93;;;;;;;-145.18;100.00;46664.31;5070645;28;20501;-69
2022/10/27 06:47:28;;;;;;;4.77;1.77;;;;;;;-145.18;100.00;46664.31;5070143;28;20032;-69
2022/10/27 06:49:53;;;;;;;5.53;2.37;;;;;;;-145.18;100.00;46664.31;5070234;28;20078;-69
2022/10/27 06:52:19;;;;;;;5.17;1.90;;;;;;;-145.18;100.00;46664.31;5070140;28;20047;-69
2022/10/27 06:54:44;;;;;;;7.57;1.80;;;;;;;-145.18;100.00;46666.25;5069933;28;20116;-69
2022/10/27 06:57:09;;;;;;;5.80;2.27;;;;;;;-145.18;100.00;46676.03;5068937;28;20033;-69
2022/10/27 06:59:35;;;;;;;5.50;1.67;;;;;;;-145.18;100.00;46666.25;5070137;28;20409;-69
2022/10/27 07:02:02;;;;;;;6.33;1.83;;;;;;;-145.18;100.00;46664.31;5070086;28;20040;-69
2022/10/27 07:04:27;;;;;;;9.83;2.30;;;;;;;-145.18;100.00;46670.16;5070026;28;20040;-69
2022/10/27 07:06:52;;;;;;;6.23;2.20;;;;;;;-145.18;100.00;46670.16;5069923;28;20507;-69
2022/10/27 07:09:18;;;;;;;7.23;2.10;;;;;;;-145.18;100.00;46681.88;5070298;28;20536;-69
2022/10/27 07:11:43;;;;;;;5.03;1.37;;;;;;;-145.18;100.00;46668.22;5069923;28;20107;-69
2022/10/27 07:14:08;;;;;;;4.63;1.43;;;;;;;-145.18;100.00;46672.13;5069801;28;20528;-69
2022/10/27 07:16:34;;;;;;;4.33;1.57;;;;;;;-145.18;100.00;46677.97;5069788;28;20033;-69
2022/10/27 07:18:59;;;;;;;8.67;1.53;;;;;;;-145.18;100.00;46681.88;5069668;28;20035;-69
2022/10/27 07:21:26;;;;;;;6.20;1.80;;;;;;;-145.18;100.00;46676.03;5069332;28;20497;-69
2022/10/27 07:23:51;;;;;;;7.60;1.43;;;;;;;-145.18;100.00;46674.06;5069105;28;20485;-69
2022/10/27 07:26:16;;;;;;;6.77;1.77;;;;;;;-145.18;100.00;46676.03;5069943;28;20070;-69
2022/10/27 07:28:42;;;;;;;5.83;2.07;;;;;;;-145.18;100.00;46681.88;5069438;28;20119;-69
2022/10/27 07:31:07;;;;;;;4.30;1.77;;;;;;;-145.18;100.00;46683.84;5070011;28;20044;-69
2022/10/27 07:33:32;;;;;;;4.93;1.70;;;;;;;-145.18;100.00;46681.88;5069704;28;20055;-69
2022/10/27 07:35:58;;;;;;;5.70;1.67;;;;;;;-145.18;100.00;46679.94;5069999;28;20039;-69
2022/10/27 07:38:23;;;;;;;6.53;2.50;;;;;;;-145.18;100.00;46685.78;5069709;28;20033;-69
2022/10/27 07:40:49;;;;;;;5.23;2.00;;;;;;;-145.18;100.00;46681.88;5069574;28;20029;-69
2022/10/27 07:43:14;;;;;;;7.00;2.13;;;;;;;-145.18;100.00;46674.06;5069527;28;20040;-69
2022/10/27 07:45:41;;;;;;;5.23;2.23;;;;;;;-145.18;100.00;46679.94;5069499;28;20427;-69
2022/10/27 07:48:10;;;;;;;6.87;2.20;;;;;;;-145.18;100.00;46677.97;5069716;28;20493;-69
2022/10/27 07:50:36;;;;;;;5.80;2.30;;;;;;;-145.18;100.00;46687.75;5069599;28;20082;-69
2022/10/27 07:53:02;;;;;;;11.37;2.63;;;;;;;-145.18;100.00;46683.84;5069631;28;20028;-69
2022/10/27 07:55:30;;;;;;;10.67;2.63;;;;;;;-145.18;100.00;46687.75;5069729;28;20225;-69
2022/10/27 07:58:04;;;;;;;4.37;1.73;;;;;;;-145.18;100.00;46689.69;5069259;28;20134;-69
2022/10/27 08:00:30;;;;;;;5.87;2.60;;;;;;;-145.18;100.00;46687.75;5069628;28;20036;-69
2022/10/27 08:02:58;;;;;;;11.90;2.97;;;;;;;-145.18;100.00;46689.69;5069145;28;20079;-69
2022/10/27 08:05:23;;;;;;;7.20;2.10;;;;;;;-145.18;100.00;46685.78;5069560;28;20487;-69
2022/10/27 08:07:49;;;;;;;10.93;2.20;;;;;;;-145.18;100.00;46683.84;5068964;28;20039;-69
2022/10/27 08:10:14;;;;;;;7.60;2.63;;;;;;;-145.18;100.00;46681.88;5069838;28;20150;-69
2022/10/27 08:12:44;;;;;;;3.63;2.10;;;;;;;-145.18;100.00;46683.84;5069234;28;20036;-69
2022/10/27 08:15:12;;;;;;;7.70;2.03;;;;;;;-145.18;100.00;46683.84;5068471;28;20079;-69
2022/10/27 08:17:39;;;;;;;6.83;2.50;;;;;;;-145.18;100.00;46683.84;5068981;28;20072;-69
2022/10/27 08:20:06;;;;;;;7.67;1.90;;;;;;;-145.18;100.00;46687.75;5069457;28;20032;-69
2022/10/27 08:22:31;;;;;;;9.50;1.93;;;;;;;-145.18;100.00;46683.84;5069337;28;20189;-69
2022/10/27 08:24:56;;;;;;;8.57;2.30;;;;;;;-145.18;100.00;46687.75;5070187;28;20386;-69
2022/10/27 08:27:22;;;;;;;8.43;2.00;;;;;;;-145.18;100.00;46683.84;5072840;28;20460;-69
2022/10/27 08:29:47;;;;;;;5.60;1.70;;;;;;;-145.18;100.00;46687.75;5072613;28;20040;-69
2022/10/27 08:32:14;;;;;;;3.83;1.60;;;;;;;-145.18;100.00;46683.84;5072900;28;20106;-69
2022/10/27 08:34:40;;;;;;;5.63;1.77;;;;;;;-145.18;100.00;46681.88;5072064;28;20492;-69
2022/10/27 08:37:05;;;;;;;7.20;1.87;;;;;;;-145.18;100.00;46681.88;5073113;28;20068;-69
2022/10/27 08:39:31;;;;;;;8.63;2.17;;;;;;;-145.18;100.00;46683.84;5068784;28;20476;-69
2022/10/27 08:42:05;;;;;;;9.40;2.23;;;;;;;-145.18;100.00;46683.84;5072482;28;20515;-69
2022/10/27 08:44:41;;;;;;;12.53;2.17;;;;;;;-145.18;100.00;46685.78;5070585;28;20035;-69
2022/10/27 08:47:16;;;;;;;9.25;2.25;;;;;;;-145.18;100.00;46676.03;5072711;28;20040;-69
2022/10/27 08:49:46;;;;;;;5.57;1.73;;;;;;;-145.18;100.00;46674.06;5072172;28;20024;-69
2022/10/27 08:52:11;;;;;;;4.70;1.73;;;;;;;-145.18;100.00;46664.31;5072483;28;20028;-69
2022/10/27 08:54:39;;;;;;;3.50;1.57;;;;;;;-145.18;100.00;46677.97;5072581;28;20153;-69
2022/10/27 08:57:08;;;;;;;6.63;1.50;;;;;;;-145.18;100.00;46662.34;5072597;28;20035;-69
2022/10/27 08:59:35;;;;;;;4.90;1.40;;;;;;;-145.18;100.00;46656.50;5072066;28;20032;-69
2022/10/27 09:02:33;;;;;;;4.10;1.17;;;;;;;-145.18;100.00;46631.09;5064696;28;20036;-70
2022/10/27 09:05:25;;;;;;;3.03;1.20;;;;;;;-145.18;100.00;46593.97;5052168;28;20029;-69
2022/10/27 09:07:58;;;;;;;5.07;1.10;;;;;;;-145.18;100.00;46566.63;5051957;28;20036;-70
2022/10/27 09:10:46;;;;;;;4.13;1.33;;;;;;;-145.18;100.00;46566.63;5052155;28;20059;-70
2022/10/27 09:13:49;;;;;;;5.13;1.50;;;;;;;-145.18;100.00;46572.50;5051636;28;20025;-70
2022/10/27 09:16:24;;;;;;;7.77;1.70;;;;;;;-145.18;100.00;46568.59;5052228;28;20032;-70
2022/10/27 09:18:54;;;;;;;3.33;1.50;;;;;;;-145.18;100.00;46574.44;5051793;28;20094;-70
2022/10/27 09:21:21;;;;;;;2.97;1.40;;;;;;;-145.18;100.00;46572.50;5052322;28;20021;-70
2022/10/27 09:23:57;;;;;;;3.90;1.43;;;;;;;-145.18;100.00;46574.44;5051345;28;20025;-70
2022/10/27 09:26:28;;;;;;;4.83;1.87;;;;;;;-145.18;100.00;46568.59;5051821;28;20033;-70
2022/10/27 09:28:54;;;;;;;4.33;1.53;;;;;;;-145.18;100.00;46566.63;5057934;28;20020;-70
2022/10/27 09:31:39;;;;;;;5.63;1.40;;;;;;;-145.18;100.00;46572.50;5072052;28;20103;-70
2022/10/27 09:34:16;;;;;;;5.10;1.40;;;;;;;-145.18;100.00;46574.44;5071486;28;20060;-70
2022/10/27 09:36:41;;;;;;;5.03;1.60;;;;;;;-145.18;100.00;46572.50;5071575;28;20024;-70
2022/10/27 09:39:08;;;;;;;6.03;1.47;;;;;;;-145.18;100.00;46566.63;5071334;28;20043;-70
2022/10/27 09:41:33;;;;;;;3.57;1.47;;;;;;;-145.18;100.00;46578.34;5071529;28;20029;-70
2022/10/27 09:43:59;;;;;;;7.70;1.20;;;;;;;-145.18;100.00;46582.25;5071366;28;20040;-70
2022/10/27 09:46:28;;;;;;;6.97;1.73;;;;;;;-145.18;100.00;46576.41;5071569;28;20039;-70
2022/10/27 09:49:00;;;;;;;7.63;1.50;;;;;;;-145.18;100.00;46578.34;5070861;28;20062;-70
2022/10/27 09:51:41;;;;;;;4.83;1.87;;;;;;;-145.18;100.00;46586.16;5071582;28;20025;-70
2022/10/27 09:54:30;;;;;;;6.47;1.70;;;;;;;-145.18;100.00;46593.97;5070996;28;20033;-70
2022/10/27 09:57:03;;;;;;;9.63;1.60;;;;;;;-145.18;100.00;46593.97;5071240;28;20037;-70
2022/10/27 09:59:29;;;;;;;6.60;1.77;;;;;;;-145.18;100.00;46593.97;5070662;28;20032;-70
2022/10/27 10:01:58;;;;;;;4.47;1.23;;;;;;;-145.18;100.00;46590.06;5062967;28;20400;-70
2022/10/27 10:04:29;;;;;;;8.13;1.43;;;;;;;-145.18;100.00;46584.22;5067368;28;20476;-70
2022/10/27 10:06:58;;;;;;;6.40;1.30;;;;;;;-145.18;100.00;46576.41;5067593;28;20393;-70
2022/10/27 10:09:28;;;;;;;4.80;1.10;;;;;;;-145.18;100.00;46576.41;5070936;28;20025;-70
2022/10/27 10:12:29;;;;;;;6.37;1.20;;;;;;;-145.18;100.00;46580.31;5070717;28;20043;-70
2022/10/27 10:15:10;;;;;;;5.93;1.20;;;;;;;-145.18;100.00;46568.59;5028245;28;20037;-70
2022/10/27 10:17:37;;;;;;;8.80;1.93;;;;;;;-145.18;100.00;46578.34;5066237;28;20124;-70
2022/10/27 10:20:04;;;;;;;7.63;1.57;;;;;;;-145.18;100.00;46578.34;5060130;28;20565;-70
2022/10/27 10:22:32;;;;;;;7.97;1.40;;;;;;;-145.18;100.00;46580.31;5070462;28;20115;-70
2022/10/27 10:25:16;;;;;;;4.63;1.40;;;;;;;-145.18;100.00;46578.34;5066469;28;20048;-70
2022/10/27 10:27:54;;;;;;;7.33;1.50;;;;;;;-145.18;100.00;46570.53;5058790;28;20052;-70
2022/10/27 10:30:19;;;;;;;7.23;1.70;;;;;;;-145.18;100.00;46568.59;5066527;28;20400;-70
2022/10/27 10:32:50;;;;;;;7.03;2.07;;;;;;;-145.18;100.00;46574.44;5069312;28;20036;-70
2022/10/27 10:35:43;;;;;;;2.77;1.33;;;;;;;-145.18;100.00;46574.44;5069958;28;20075;-70
2022/10/27 10:38:35;;;;;;;3.63;1.27;;;;;;;-145.18;100.00;46576.41;5070211;28;20539;-70
2022/10/27 10:41:03;;;;;;;4.17;1.40;;;;;;;-145.18;100.00;46574.44;5069758;28;20032;-70
2022/10/27 10:43:28;;;;;;;2.80;1.20;;;;;;;-145.18;100.00;46566.63;5070122;28;20040;-70
2022/10/27 10:45:54;;;;;;;6.67;1.33;;;;;;;-145.18;100.00;46568.59;5069107;28;20401;-70
2022/10/27 10:48:27;;;;;;;4.37;1.60;;;;;;;-145.18;100.00;46568.59;5069734;28;20062;-70
2022/10/27 10:50:52;;;;;;;5.30;2.07;;;;;;;-145.18;100.00;46574.44;5069881;28;20394;-70
2022/10/27 10:53:22;;;;;;;8.37;1.90;;;;;;;-145.18;100.00;46584.22;5069839;28;20040;-70
2022/10/27 10:55:48;;;;;;;4.60;1.80;;;;;;;-145.18;100.00;46580.31;5069715;28;20040;-70
2022/10/27 10:58:18;;;;;;;3.90;1.23;;;;;;;-145.18;100.00;46576.41;5066355;28;20043;-70
2022/10/27 11:01:13;;;;;;;7.27;1.30;;;;;;;-145.18;100.00;46584.22;5065830;28;20033;-70
2022/10/27 11:03:45;;;;;;;8.07;1.60;;;;;;;-145.18;100.00;46586.16;5040112;28;20057;-70
2022/10/27 11:06:20;;;;;;;4.47;1.57;;;;;;;-145.18;100.00;46590.06;5049572;28;20489;-70
2022/10/27 11:09:01;;;;;;;5.63;1.83;;;;;;;-145.18;100.00;46586.16;5049584;28;20035;-70
2022/10/27 11:11:30;;;;;;;5.07;1.57;;;;;;;-145.18;100.00;46590.06;5053923;28;20436;-71
2022/10/27 11:14:00;;;;;;;8.27;1.70;;;;;;;-145.18;100.00;46597.88;5069704;28;20036;-71
2022/10/27 11:16:27;;;;;;;27.87;2.87;;;;;;;-145.18;100.00;46593.97;5068996;28;20036;-70
2022/10/27 11:18:57;;;;;;;5.23;1.80;;;;;;;-145.18;100.00;46592.03;5069542;28;20439;-70